sensor_id;sensor_type;location;lat;lon;timestamp;pressure;altitude;pressure_sealevel;temperature;humidity
38400;BME280;24180;42.676;23.320;2023-06-19T00:02:00;94829.34;;;18.56;100.00
38400;BME280;24180;42.676;23.320;2023-06-19T00:04:25;94788.34;;;18.28;100.00
38400;BME280;24180;42.676;23.320;2023-06-19T00:06:52;94810.81;;;18.37;100.00
38400;BME280;24180;42.676;23.320;2023-06-19T00:09:18;94831.09;;;18.49;100.00
38400;BME280;24180;42.676;23.320;2023-06-19T00:11:43;94809.00;;;18.37;100.00
38400;BME280;24180;42.676;23.320;2023-06-19T00:14:09;94812.66;;;18.43;100.00
38400;BME280;24180;42.676;23.320;2023-06-19T00:16:34;94806.25;;;18.45;100.00
38400;BME280;24180;42.676;23.320;2023-06-19T00:19:00;94824.50;;;18.53;100.00
38400;BME280;24180;42.676;23.320;2023-06-19T00:21:28;94792.63;;;18.35;100.00
38400;BME280;24180;42.676;23.320;2023-06-19T00:23:54;94791.53;;;18.23;100.00
38400;BME280;24180;42.676;23.320;2023-06-19T00:26:20;94797.59;;;18.23;100.00
38400;BME280;24180;42.676;23.320;2023-06-19T00:28:50;94790.72;;;18.22;100.00
38400;BME280;24180;42.676;23.320;2023-06-19T00:31:16;94767.22;;;18.08;100.00
38400;BME280;24180;42.676;23.320;2023-06-19T00:33:43;94792.91;;;18.19;100.00
38400;BME280;24180;42.676;23.320;2023-06-19T00:36:09;94812.19;;;18.33;100.00
38400;BME280;24180;42.676;23.320;2023-06-19T00:38:36;94777.56;;;18.16;100.00
38400;BME280;24180;42.676;23.320;2023-06-19T00:41:01;94791.16;;;18.26;100.00
38400;BME280;24180;42.676;23.320;2023-06-19T00:43:26;94810.13;;;18.28;100.00
38400;BME280;24180;42.676;23.320;2023-06-19T00:45:52;94802.25;;;18.28;100.00
38400;BME280;24180;42.676;23.320;2023-06-19T00:48:18;94783.19;;;18.13;100.00
38400;BME280;24180;42.676;23.320;2023-06-19T00:50:43;94794.66;;;18.12;100.00
38400;BME280;24180;42.676;23.320;2023-06-19T00:53:09;94802.28;;;18.07;100.00
38400;BME280;24180;42.676;23.320;2023-06-19T00:55:36;94784.91;;;18.06;100.00
38400;BME280;24180;42.676;23.320;2023-06-19T00:58:02;94793.03;;;18.11;100.00
38400;BME280;24180;42.676;23.320;2023-06-19T01:00:28;94756.75;;;17.87;100.00
38400;BME280;24180;42.676;23.320;2023-06-19T01:02:53;94740.66;;;17.68;100.00
38400;BME280;24180;42.676;23.320;2023-06-19T01:05:19;94772.72;;;17.92;100.00
38400;BME280;24180;42.676;23.320;2023-06-19T01:07:57;94770.03;;;17.85;100.00
38400;BME280;24180;42.676;23.320;2023-06-19T01:10:54;94778.19;;;17.75;100.00
38400;BME280;24180;42.676;23.320;2023-06-19T01:16:04;94759.13;;;17.60;100.00
38400;BME280;24180;42.676;23.320;2023-06-19T01:18:31;94768.84;;;17.66;100.00
38400;BME280;24180;42.676;23.320;2023-06-19T01:21:12;94773.03;;;17.61;100.00
38400;BME280;24180;42.676;23.320;2023-06-19T01:23:38;94772.38;;;17.59;100.00
38400;BME280;24180;42.676;23.320;2023-06-19T01:26:03;94739.47;;;17.35;100.00
38400;BME280;24180;42.676;23.320;2023-06-19T01:28:29;94774.72;;;17.54;100.00
38400;BME280;24180;42.676;23.320;2023-06-19T01:30:56;94744.88;;;17.48;100.00
38400;BME280;24180;42.676;23.320;2023-06-19T01:33:27;94768.44;;;17.48;100.00
38400;BME280;24180;42.676;23.320;2023-06-19T01:35:55;94778.88;;;17.63;100.00
38400;BME280;24180;42.676;23.320;2023-06-19T01:38:21;94756.00;;;17.36;100.00
38400;BME280;24180;42.676;23.320;2023-06-19T01:40:50;94782.06;;;17.44;100.00
38400;BME280;24180;42.676;23.320;2023-06-19T01:43:18;94774.81;;;17.24;100.00
38400;BME280;24180;42.676;23.320;2023-06-19T01:45:43;94791.44;;;17.38;100.00
38400;BME280;24180;42.676;23.320;2023-06-19T01:48:09;94758.13;;;17.11;100.00
38400;BME280;24180;42.676;23.320;2023-06-19T01:50:34;94763.53;;;17.09;100.00
38400;BME280;24180;42.676;23.320;2023-06-19T01:53:00;94795.91;;;17.23;100.00
38400;BME280;24180;42.676;23.320;2023-06-19T01:55:26;94763.63;;;17.01;100.00
38400;BME280;24180;42.676;23.320;2023-06-19T01:57:51;94792.41;;;17.16;100.00
38400;BME280;24180;42.676;23.320;2023-06-19T02:00:17;94791.66;;;17.22;100.00
38400;BME280;24180;42.676;23.320;2023-06-19T02:02:43;94788.91;;;17.09;100.00
38400;BME280;24180;42.676;23.320;2023-06-19T02:05:08;94766.81;;;16.97;100.00
38400;BME280;24180;42.676;23.320;2023-06-19T02:07:34;94793.13;;;17.10;100.00
38400;BME280;24180;42.676;23.320;2023-06-19T02:09:59;94797.84;;;17.00;100.00
38400;BME280;24180;42.676;23.320;2023-06-19T02:12:25;94796.38;;;17.12;100.00
38400;BME280;24180;42.676;23.320;2023-06-19T02:14:50;94795.50;;;17.05;100.00
38400;BME280;24180;42.676;23.320;2023-06-19T02:17:16;94784.66;;;17.08;100.00
38400;BME280;24180;42.676;23.320;2023-06-19T02:19:41;94803.59;;;17.10;100.00
38400;BME280;24180;42.676;23.320;2023-06-19T02:22:07;94757.16;;;16.82;100.00
38400;BME280;24180;42.676;23.320;2023-06-19T02:24:33;94772.78;;;16.76;100.00
38400;BME280;24180;42.676;23.320;2023-06-19T02:26:58;94797.19;;;16.98;100.00
38400;BME280;24180;42.676;23.320;2023-06-19T02:29:24;94771.69;;;16.70;100.00
38400;BME280;24180;42.676;23.320;2023-06-19T02:31:50;94793.16;;;16.80;100.00
38400;BME280;24180;42.676;23.320;2023-06-19T02:34:16;94776.22;;;16.54;100.00
38400;BME280;24180;42.676;23.320;2023-06-19T02:36:41;94785.03;;;16.61;100.00
38400;BME280;24180;42.676;23.320;2023-06-19T02:39:08;94802.22;;;16.55;100.00
38400;BME280;24180;42.676;23.320;2023-06-19T02:41:33;94774.50;;;16.46;100.00
38400;BME280;24180;42.676;23.320;2023-06-19T02:43:59;94790.78;;;16.56;100.00
38400;BME280;24180;42.676;23.320;2023-06-19T02:46:24;94796.41;;;16.45;100.00
38400;BME280;24180;42.676;23.320;2023-06-19T02:48:50;94768.00;;;16.27;100.00
38400;BME280;24180;42.676;23.320;2023-06-19T02:51:15;94782.78;;;16.20;100.00
38400;BME280;24180;42.676;23.320;2023-06-19T02:53:41;94802.44;;;16.31;100.00
38400;BME280;24180;42.676;23.320;2023-06-19T02:56:07;94797.56;;;16.28;100.00
38400;BME280;24180;42.676;23.320;2023-06-19T02:58:33;94806.28;;;16.20;100.00
38400;BME280;24180;42.676;23.320;2023-06-19T03:00:59;94777.91;;;15.95;100.00
38400;BME280;24180;42.676;23.320;2023-06-19T03:03:25;94805.25;;;16.07;100.00
38400;BME280;24180;42.676;23.320;2023-06-19T03:05:50;94733.88;;;15.69;100.00
38400;BME280;24180;42.676;23.320;2023-06-19T03:08:16;94795.78;;;16.06;100.00
38400;BME280;24180;42.676;23.320;2023-06-19T03:10:41;94803.97;;;16.03;100.00
38400;BME280;24180;42.676;23.320;2023-06-19T03:13:07;94784.06;;;16.02;100.00
38400;BME280;24180;42.676;23.320;2023-06-19T03:15:32;94774.56;;;15.86;100.00
38400;BME280;24180;42.676;23.320;2023-06-19T03:17:57;94783.31;;;15.93;100.00
38400;BME280;24180;42.676;23.320;2023-06-19T03:20:23;94792.72;;;16.02;100.00
38400;BME280;24180;42.676;23.320;2023-06-19T03:22:48;94773.88;;;15.92;100.00
38400;BME280;24180;42.676;23.320;2023-06-19T03:25:14;94786.59;;;16.10;100.00
38400;BME280;24180;42.676;23.320;2023-06-19T03:27:39;94769.09;;;15.96;100.00
38400;BME280;24180;42.676;23.320;2023-06-19T03:30:05;94790.41;;;16.07;100.00
38400;BME280;24180;42.676;23.320;2023-06-19T03:32:34;94767.63;;;15.93;100.00
38400;BME280;24180;42.676;23.320;2023-06-19T03:35:01;94795.44;;;16.09;100.00
38400;BME280;24180;42.676;23.320;2023-06-19T03:37:26;94763.88;;;15.96;100.00
38400;BME280;24180;42.676;23.320;2023-06-19T03:39:52;94783.59;;;15.98;100.00
38400;BME280;24180;42.676;23.320;2023-06-19T03:42:17;94764.78;;;16.03;100.00
38400;BME280;24180;42.676;23.320;2023-06-19T03:44:43;94775.28;;;16.17;100.00
38400;BME280;24180;42.676;23.320;2023-06-19T03:47:08;94782.13;;;16.18;100.00
38400;BME280;24180;42.676;23.320;2023-06-19T03:49:34;94792.34;;;16.28;100.00
38400;BME280;24180;42.676;23.320;2023-06-19T03:51:59;94791.97;;;16.31;100.00
38400;BME280;24180;42.676;23.320;2023-06-19T03:54:25;94794.53;;;16.39;100.00
38400;BME280;24180;42.676;23.320;2023-06-19T03:56:51;94771.06;;;16.31;100.00
38400;BME280;24180;42.676;23.320;2023-06-19T03:59:17;94789.38;;;16.46;100.00
38400;BME280;24180;42.676;23.320;2023-06-19T04:01:42;94802.06;;;16.57;100.00
38400;BME280;24180;42.676;23.320;2023-06-19T04:04:08;94794.22;;;16.71;100.00
38400;BME280;24180;42.676;23.320;2023-06-19T04:06:33;94773.63;;;16.54;100.00
38400;BME280;24180;42.676;23.320;2023-06-19T04:08:59;94774.94;;;16.72;100.00
38400;BME280;24180;42.676;23.320;2023-06-19T04:11:24;94766.56;;;16.77;100.00
38400;BME280;24180;42.676;23.320;2023-06-19T04:13:50;94798.00;;;16.98;100.00
38400;BME280;24180;42.676;23.320;2023-06-19T04:16:15;94788.44;;;16.91;100.00
38400;BME280;24180;42.676;23.320;2023-06-19T04:18:40;94806.84;;;17.12;100.00
38400;BME280;24180;42.676;23.320;2023-06-19T04:21:06;94751.75;;;16.84;100.00
38400;BME280;24180;42.676;23.320;2023-06-19T04:23:32;94756.44;;;16.89;100.00
38400;BME280;24180;42.676;23.320;2023-06-19T04:25:58;94805.66;;;17.14;100.00
38400;BME280;24180;42.676;23.320;2023-06-19T04:28:23;94796.09;;;17.07;100.00
38400;BME280;24180;42.676;23.320;2023-06-19T04:30:49;94788.97;;;17.15;100.00
38400;BME280;24180;42.676;23.320;2023-06-19T04:33:14;94813.84;;;17.26;100.00
38400;BME280;24180;42.676;23.320;2023-06-19T04:35:40;94809.06;;;17.29;100.00
38400;BME280;24180;42.676;23.320;2023-06-19T04:38:06;94809.16;;;17.36;100.00
38400;BME280;24180;42.676;23.320;2023-06-19T04:40:32;94782.72;;;17.31;100.00
38400;BME280;24180;42.676;23.320;2023-06-19T04:42:59;94783.81;;;17.37;100.00
38400;BME280;24180;42.676;23.320;2023-06-19T04:45:25;94793.25;;;17.52;100.00
38400;BME280;24180;42.676;23.320;2023-06-19T04:47:50;94815.59;;;17.69;100.00
38400;BME280;24180;42.676;23.320;2023-06-19T04:50:15;94787.19;;;17.52;100.00
38400;BME280;24180;42.676;23.320;2023-06-19T04:52:41;94783.72;;;17.66;100.00
38400;BME280;24180;42.676;23.320;2023-06-19T04:55:07;94820.84;;;17.91;100.00
38400;BME280;24180;42.676;23.320;2023-06-19T04:57:36;94820.03;;;17.90;100.00
38400;BME280;24180;42.676;23.320;2023-06-19T05:00:06;94791.19;;;17.84;100.00
38400;BME280;24180;42.676;23.320;2023-06-19T05:02:34;94789.16;;;17.86;100.00
38400;BME280;24180;42.676;23.320;2023-06-19T05:05:00;94807.84;;;17.97;100.00
38400;BME280;24180;42.676;23.320;2023-06-19T05:07:29;94811.13;;;18.06;100.00
38400;BME280;24180;42.676;23.320;2023-06-19T05:09:56;94794.53;;;17.99;100.00
38400;BME280;24180;42.676;23.320;2023-06-19T05:12:21;94804.03;;;18.00;100.00
38400;BME280;24180;42.676;23.320;2023-06-19T05:14:47;94799.41;;;18.02;100.00
38400;BME280;24180;42.676;23.320;2023-06-19T05:17:12;94828.34;;;18.15;100.00
38400;BME280;24180;42.676;23.320;2023-06-19T05:19:38;94807.91;;;18.04;100.00
38400;BME280;24180;42.676;23.320;2023-06-19T05:22:03;94834.59;;;18.14;100.00
38400;BME280;24180;42.676;23.320;2023-06-19T05:24:29;94809.88;;;18.02;100.00
38400;BME280;24180;42.676;23.320;2023-06-19T05:26:54;94837.34;;;18.27;100.00
38400;BME280;24180;42.676;23.320;2023-06-19T05:29:19;94836.72;;;18.25;100.00
38400;BME280;24180;42.676;23.320;2023-06-19T05:31:45;94840.34;;;18.24;100.00
38400;BME280;24180;42.676;23.320;2023-06-19T05:34:10;94814.50;;;18.21;100.00
38400;BME280;24180;42.676;23.320;2023-06-19T05:36:36;94855.16;;;18.53;100.00
38400;BME280;24180;42.676;23.320;2023-06-19T05:39:01;94849.38;;;18.43;100.00
38400;BME280;24180;42.676;23.320;2023-06-19T05:41:27;94810.75;;;18.30;100.00
38400;BME280;24180;42.676;23.320;2023-06-19T05:43:52;94852.59;;;18.66;100.00
38400;BME280;24180;42.676;23.320;2023-06-19T05:46:17;94830.16;;;18.57;100.00
38400;BME280;24180;42.676;23.320;2023-06-19T05:48:43;94848.03;;;18.75;100.00
38400;BME280;24180;42.676;23.320;2023-06-19T05:51:08;94851.75;;;18.87;100.00
38400;BME280;24180;42.676;23.320;2023-06-19T05:53:34;94847.34;;;18.94;100.00
38400;BME280;24180;42.676;23.320;2023-06-19T05:55:59;94839.06;;;18.90;100.00
38400;BME280;24180;42.676;23.320;2023-06-19T05:58:24;94803.81;;;18.72;100.00
38400;BME280;24180;42.676;23.320;2023-06-19T06:00:51;94857.34;;;19.05;100.00
38400;BME280;24180;42.676;23.320;2023-06-19T06:03:25;94864.28;;;19.19;100.00
38400;BME280;24180;42.676;23.320;2023-06-19T06:05:51;94876.25;;;19.28;100.00
38400;BME280;24180;42.676;23.320;2023-06-19T06:08:16;94850.75;;;19.22;100.00
38400;BME280;24180;42.676;23.320;2023-06-19T06:10:42;94855.47;;;19.33;100.00
38400;BME280;24180;42.676;23.320;2023-06-19T06:13:07;94868.69;;;19.46;100.00
38400;BME280;24180;42.676;23.320;2023-06-19T06:15:33;94860.88;;;19.59;100.00
38400;BME280;24180;42.676;23.320;2023-06-19T06:17:58;94870.63;;;19.79;100.00
38400;BME280;24180;42.676;23.320;2023-06-19T06:20:24;94875.72;;;19.87;100.00
38400;BME280;24180;42.676;23.320;2023-06-19T06:22:49;94811.53;;;19.48;100.00
38400;BME280;24180;42.676;23.320;2023-06-19T06:25:15;94859.13;;;19.80;100.00
38400;BME280;24180;42.676;23.320;2023-06-19T06:27:41;94876.19;;;20.10;100.00
38400;BME280;24180;42.676;23.320;2023-06-19T06:30:07;94852.28;;;19.98;100.00
38400;BME280;24180;42.676;23.320;2023-06-19T06:32:32;94873.81;;;20.22;100.00
38400;BME280;24180;42.676;23.320;2023-06-19T06:34:59;94875.63;;;20.21;100.00
38400;BME280;24180;42.676;23.320;2023-06-19T06:37:24;94864.06;;;20.09;100.00
38400;BME280;24180;42.676;23.320;2023-06-19T06:39:50;94851.50;;;19.98;100.00
38400;BME280;24180;42.676;23.320;2023-06-19T06:42:16;94858.59;;;19.97;100.00
38400;BME280;24180;42.676;23.320;2023-06-19T06:44:42;94870.97;;;20.17;100.00
38400;BME280;24180;42.676;23.320;2023-06-19T06:47:07;94889.22;;;20.31;100.00
38400;BME280;24180;42.676;23.320;2023-06-19T06:49:33;94889.25;;;20.44;100.00
38400;BME280;24180;42.676;23.320;2023-06-19T06:51:58;94862.91;;;20.31;100.00
38400;BME280;24180;42.676;23.320;2023-06-19T06:54:24;94890.06;;;20.65;100.00
38400;BME280;24180;42.676;23.320;2023-06-19T06:56:50;94889.06;;;20.92;100.00
38400;BME280;24180;42.676;23.320;2023-06-19T06:59:17;94851.19;;;20.93;100.00
38400;BME280;24180;42.676;23.320;2023-06-19T07:01:42;94890.94;;;21.69;100.00
38400;BME280;24180;42.676;23.320;2023-06-19T07:04:08;94890.28;;;21.93;100.00
38400;BME280;24180;42.676;23.320;2023-06-19T07:06:33;94891.06;;;21.87;100.00
38400;BME280;24180;42.676;23.320;2023-06-19T07:08:59;94849.19;;;21.72;100.00
38400;BME280;24180;42.676;23.320;2023-06-19T07:11:24;94878.53;;;21.82;100.00
38400;BME280;24180;42.676;23.320;2023-06-19T07:13:49;94887.53;;;21.55;100.00
38400;BME280;24180;42.676;23.320;2023-06-19T07:16:15;94860.69;;;21.20;100.00
38400;BME280;24180;42.676;23.320;2023-06-19T07:18:40;94848.31;;;21.08;100.00
38400;BME280;24180;42.676;23.320;2023-06-19T07:21:11;94867.81;;;21.13;100.00
38400;BME280;24180;42.676;23.320;2023-06-19T07:23:41;94882.16;;;21.24;100.00
38400;BME280;24180;42.676;23.320;2023-06-19T07:26:08;94891.28;;;21.34;100.00
38400;BME280;24180;42.676;23.320;2023-06-19T07:28:34;94881.94;;;21.32;100.00
38400;BME280;24180;42.676;23.320;2023-06-19T07:31:02;94833.53;;;21.07;100.00
38400;BME280;24180;42.676;23.320;2023-06-19T07:33:28;94886.13;;;21.53;100.00
38400;BME280;24180;42.676;23.320;2023-06-19T07:35:53;94875.00;;;21.44;100.00
38400;BME280;24180;42.676;23.320;2023-06-19T07:38:18;94891.22;;;21.54;100.00
38400;BME280;24180;42.676;23.320;2023-06-19T07:40:44;94894.22;;;21.64;100.00
38400;BME280;24180;42.676;23.320;2023-06-19T07:43:09;94886.91;;;21.60;100.00
38400;BME280;24180;42.676;23.320;2023-06-19T07:45:35;94880.69;;;21.47;100.00
38400;BME280;24180;42.676;23.320;2023-06-19T07:48:00;94880.28;;;21.44;100.00
38400;BME280;24180;42.676;23.320;2023-06-19T07:50:26;94896.41;;;21.74;100.00
38400;BME280;24180;42.676;23.320;2023-06-19T07:52:52;94883.78;;;21.89;100.00
38400;BME280;24180;42.676;23.320;2023-06-19T07:55:17;94896.03;;;22.21;100.00
38400;BME280;24180;42.676;23.320;2023-06-19T07:57:43;94880.94;;;21.97;100.00
38400;BME280;24180;42.676;23.320;2023-06-19T08:00:08;94840.06;;;21.68;100.00
38400;BME280;24180;42.676;23.320;2023-06-19T08:02:41;94895.16;;;22.27;100.00
38400;BME280;24180;42.676;23.320;2023-06-19T08:05:08;94900.34;;;22.09;100.00
38400;BME280;24180;42.676;23.320;2023-06-19T08:07:34;94901.69;;;22.25;100.00
38400;BME280;24180;42.676;23.320;2023-06-19T08:10:00;94877.88;;;22.31;100.00
38400;BME280;24180;42.676;23.320;2023-06-19T08:12:25;94862.25;;;22.36;100.00
38400;BME280;24180;42.676;23.320;2023-06-19T08:14:51;94879.34;;;22.27;100.00
38400;BME280;24180;42.676;23.320;2023-06-19T08:17:16;94858.22;;;22.27;100.00
38400;BME280;24180;42.676;23.320;2023-06-19T08:19:42;94885.66;;;22.58;100.00
38400;BME280;24180;42.676;23.320;2023-06-19T08:22:08;94887.34;;;22.46;100.00
38400;BME280;24180;42.676;23.320;2023-06-19T08:24:35;94880.56;;;22.63;100.00
38400;BME280;24180;42.676;23.320;2023-06-19T08:27:05;94885.28;;;22.79;100.00
38400;BME280;24180;42.676;23.320;2023-06-19T08:29:30;94881.47;;;22.75;100.00
38400;BME280;24180;42.676;23.320;2023-06-19T08:31:56;94894.13;;;22.91;100.00
38400;BME280;24180;42.676;23.320;2023-06-19T08:34:21;94876.06;;;22.70;100.00
38400;BME280;24180;42.676;23.320;2023-06-19T08:36:46;94897.38;;;22.93;100.00
38400;BME280;24180;42.676;23.320;2023-06-19T08:39:12;94856.22;;;22.85;100.00
38400;BME280;24180;42.676;23.320;2023-06-19T08:41:38;94891.06;;;23.19;100.00
38400;BME280;24180;42.676;23.320;2023-06-19T08:44:05;94885.44;;;23.33;100.00
38400;BME280;24180;42.676;23.320;2023-06-19T08:46:31;94892.38;;;23.28;100.00
38400;BME280;24180;42.676;23.320;2023-06-19T08:48:57;94871.16;;;23.16;100.00
38400;BME280;24180;42.676;23.320;2023-06-19T08:51:23;94892.19;;;23.29;100.00
38400;BME280;24180;42.676;23.320;2023-06-19T08:53:54;94871.16;;;23.16;100.00
38400;BME280;24180;42.676;23.320;2023-06-19T08:56:20;94891.66;;;23.46;100.00
38400;BME280;24180;42.676;23.320;2023-06-19T08:58:45;94873.72;;;23.48;100.00
38400;BME280;24180;42.676;23.320;2023-06-19T09:01:11;94894.72;;;23.61;100.00
38400;BME280;24180;42.676;23.320;2023-06-19T09:03:36;94882.69;;;23.83;100.00
38400;BME280;24180;42.676;23.320;2023-06-19T09:06:08;94890.03;;;23.45;100.00
38400;BME280;24180;42.676;23.320;2023-06-19T09:08:34;94866.50;;;23.37;100.00
38400;BME280;24180;42.676;23.320;2023-06-19T09:11:04;94896.03;;;23.52;100.00
38400;BME280;24180;42.676;23.320;2023-06-19T09:13:31;94871.44;;;23.51;100.00
38400;BME280;24180;42.676;23.320;2023-06-19T09:16:07;94881.59;;;23.72;100.00
38400;BME280;24180;42.676;23.320;2023-06-19T09:18:47;94880.06;;;23.83;100.00
38400;BME280;24180;42.676;23.320;2023-06-19T09:21:20;94891.56;;;23.89;98.17
38400;BME280;24180;42.676;23.320;2023-06-19T09:23:47;94863.97;;;23.48;85.84
38400;BME280;24180;42.676;23.320;2023-06-19T09:26:16;94888.59;;;23.67;92.85
38400;BME280;24180;42.676;23.320;2023-06-19T09:28:43;94889.81;;;23.64;89.68
38400;BME280;24180;42.676;23.320;2023-06-19T09:31:08;94882.38;;;23.73;94.61
38400;BME280;24180;42.676;23.320;2023-06-19T09:33:36;94864.75;;;23.85;97.25
38400;BME280;24180;42.676;23.320;2023-06-19T09:36:04;94878.69;;;24.10;95.85
38400;BME280;24180;42.676;23.320;2023-06-19T09:38:31;94884.34;;;24.14;91.13
38400;BME280;24180;42.676;23.320;2023-06-19T09:41:00;94864.41;;;24.11;95.11
38400;BME280;24180;42.676;23.320;2023-06-19T09:43:39;94886.94;;;24.02;87.85
38400;BME280;24180;42.676;23.320;2023-06-19T09:46:06;94882.75;;;23.95;90.79
38400;BME280;24180;42.676;23.320;2023-06-19T09:48:33;94865.97;;;24.01;92.30
38400;BME280;24180;42.676;23.320;2023-06-19T09:51:40;94881.91;;;24.12;92.21
38400;BME280;24180;42.676;23.320;2023-06-19T09:54:07;94878.09;;;24.08;89.38
38400;BME280;24180;42.676;23.320;2023-06-19T09:56:35;94885.16;;;24.14;88.50
38400;BME280;24180;42.676;23.320;2023-06-19T09:59:01;94835.66;;;23.85;87.52
38400;BME280;24180;42.676;23.320;2023-06-19T10:01:29;94871.16;;;24.07;87.79
38400;BME280;24180;42.676;23.320;2023-06-19T10:04:07;94871.44;;;24.36;85.31
38400;BME280;24180;42.676;23.320;2023-06-19T10:06:45;94864.25;;;24.24;90.04
38400;BME280;24180;42.676;23.320;2023-06-19T10:09:11;94857.16;;;24.37;83.55
38400;BME280;24180;42.676;23.320;2023-06-19T10:11:50;94852.34;;;24.45;77.07
38400;BME280;24180;42.676;23.320;2023-06-19T10:14:22;94855.16;;;24.62;82.99
38400;BME280;24180;42.676;23.320;2023-06-19T10:16:48;94842.56;;;24.87;83.08
38400;BME280;24180;42.676;23.320;2023-06-19T10:19:21;94869.84;;;24.88;86.46
38400;BME280;24180;42.676;23.320;2023-06-19T10:21:49;94862.50;;;25.13;84.52
38400;BME280;24180;42.676;23.320;2023-06-19T10:24:18;94857.81;;;25.90;78.94
38400;BME280;24180;42.676;23.320;2023-06-19T10:26:59;94828.38;;;27.31;72.86
38400;BME280;24180;42.676;23.320;2023-06-19T10:29:25;94850.19;;;28.64;65.54
38400;BME280;24180;42.676;23.320;2023-06-19T10:31:52;94836.50;;;30.13;53.91
38400;BME280;24180;42.676;23.320;2023-06-19T10:34:17;94820.56;;;32.63;46.11
38400;BME280;24180;42.676;23.320;2023-06-19T10:36:43;94840.91;;;34.31;39.84
38400;BME280;24180;42.676;23.320;2023-06-19T10:39:09;94850.28;;;32.22;39.20
38400;BME280;24180;42.676;23.320;2023-06-19T10:41:35;94825.41;;;30.97;40.31
38400;BME280;24180;42.676;23.320;2023-06-19T10:44:06;94835.03;;;32.18;37.24
38400;BME280;24180;42.676;23.320;2023-06-19T10:46:37;94826.38;;;32.31;36.21
38400;BME280;24180;42.676;23.320;2023-06-19T10:49:05;94839.91;;;33.27;35.82
38400;BME280;24180;42.676;23.320;2023-06-19T10:51:33;94839.97;;;32.44;38.77
38400;BME280;24180;42.676;23.320;2023-06-19T10:53:59;94821.00;;;31.77;40.05
38400;BME280;24180;42.676;23.320;2023-06-19T10:56:25;94823.22;;;33.02;39.01
38400;BME280;24180;42.676;23.320;2023-06-19T10:59:04;94851.22;;;33.82;38.11
38400;BME280;24180;42.676;23.320;2023-06-19T11:01:39;94817.34;;;33.57;39.89
38400;BME280;24180;42.676;23.320;2023-06-19T11:04:09;94798.31;;;34.01;37.68
38400;BME280;24180;42.676;23.320;2023-06-19T11:06:35;94808.22;;;32.67;41.63
38400;BME280;24180;42.676;23.320;2023-06-19T11:09:01;94827.78;;;31.19;46.63
38400;BME280;24180;42.676;23.320;2023-06-19T11:14:04;94826.34;;;32.80;45.42
38400;BME280;24180;42.676;23.320;2023-06-19T11:16:30;94803.09;;;32.26;46.17
38400;BME280;24180;42.676;23.320;2023-06-19T11:18:57;94834.97;;;30.37;56.33
38400;BME280;24180;42.676;23.320;2023-06-19T11:21:34;94813.63;;;30.78;51.78
38400;BME280;24180;42.676;23.320;2023-06-19T11:24:02;94827.84;;;32.08;50.82
38400;BME280;24180;42.676;23.320;2023-06-19T11:26:28;94815.75;;;33.80;45.32
38400;BME280;24180;42.676;23.320;2023-06-19T11:28:53;94800.38;;;35.16;40.74
38400;BME280;24180;42.676;23.320;2023-06-19T11:31:25;94816.75;;;37.15;34.44
38400;BME280;24180;42.676;23.320;2023-06-19T11:34:00;94827.41;;;36.26;35.76
38400;BME280;24180;42.676;23.320;2023-06-19T11:36:28;94798.81;;;36.74;34.82
38400;BME280;24180;42.676;23.320;2023-06-19T11:38:54;94791.63;;;36.34;35.35
38400;BME280;24180;42.676;23.320;2023-06-19T11:41:29;94809.44;;;37.77;32.03
38400;BME280;24180;42.676;23.320;2023-06-19T11:43:59;94793.50;;;38.15;31.59
38400;BME280;24180;42.676;23.320;2023-06-19T11:46:32;94803.53;;;37.13;33.43
38400;BME280;24180;42.676;23.320;2023-06-19T11:49:27;94813.19;;;31.85;48.46
38400;BME280;24180;42.676;23.320;2023-06-19T11:51:57;94819.53;;;29.30;63.37
38400;BME280;24180;42.676;23.320;2023-06-19T11:54:23;94797.44;;;30.02;66.35
38400;BME280;24180;42.676;23.320;2023-06-19T11:56:48;94751.38;;;33.22;47.00
38400;BME280;24180;42.676;23.320;2023-06-19T11:59:14;94777.88;;;34.00;43.74
38400;BME280;24180;42.676;23.320;2023-06-19T12:01:40;94777.88;;;36.08;41.53
38400;BME280;24180;42.676;23.320;2023-06-19T12:04:06;94790.66;;;33.90;43.03
38400;BME280;24180;42.676;23.320;2023-06-19T12:06:32;94795.53;;;31.84;51.94
38400;BME280;24180;42.676;23.320;2023-06-19T12:08:57;94805.50;;;31.64;58.59
38400;BME280;24180;42.676;23.320;2023-06-19T12:11:23;94807.28;;;34.71;44.48
38400;BME280;24180;42.676;23.320;2023-06-19T12:13:50;94808.34;;;34.14;42.32
38400;BME280;24180;42.676;23.320;2023-06-19T12:16:15;94808.28;;;33.77;44.99
38400;BME280;24180;42.676;23.320;2023-06-19T12:18:41;94804.00;;;33.47;43.77
38400;BME280;24180;42.676;23.320;2023-06-19T12:21:06;94779.31;;;31.45;51.88
38400;BME280;24180;42.676;23.320;2023-06-19T12:23:32;94803.63;;;30.12;61.57
38400;BME280;24180;42.676;23.320;2023-06-19T12:25:58;94808.53;;;30.51;64.11
38400;BME280;24180;42.676;23.320;2023-06-19T12:28:23;94764.97;;;30.45;62.57
38400;BME280;24180;42.676;23.320;2023-06-19T12:30:49;94783.94;;;30.74;60.24
38400;BME280;24180;42.676;23.320;2023-06-19T12:33:18;94779.47;;;32.33;53.09
38400;BME280;24180;42.676;23.320;2023-06-19T12:35:44;94791.69;;;32.49;51.67
38400;BME280;24180;42.676;23.320;2023-06-19T12:38:10;94798.22;;;33.06;48.99
38400;BME280;24180;42.676;23.320;2023-06-19T12:40:36;94774.59;;;33.08;47.35
38400;BME280;24180;42.676;23.320;2023-06-19T12:43:02;94775.91;;;30.94;58.49
38400;BME280;24180;42.676;23.320;2023-06-19T12:45:28;94786.03;;;31.28;57.86
38400;BME280;24180;42.676;23.320;2023-06-19T12:47:53;94784.81;;;33.35;49.62